Terminal Aerodrome Forecast
Issued by NWS

Home | Current Version | Previous Version | Text Only | Print | Product List | Glossary On
Versions: 1 2 3 4 5 6 7 8 9 10 11 12 13 14 15
000
FTUS43 KLSX 201521 AAA
TAFCPS
TAF AMD
KCPS 201521Z 2015/2112 20011KT P6SM VCSH BKN080
      TEMPO 2015/2016 -SHRA BKN050
     FM201700 24013G22KT P6SM -SHRA VCTS OVC050CB
     FM202100 28012G22KT P6SM BKN060
     FM210100 34007KT P6SM SCT110=

USA.gov is the U.S. government's official web portal to all federal, state and local government web resources and services.